createdAt,value
2022-11-01T00:00:00.723Z,40.50
2022-11-01T00:00:23.488Z,40.60
2022-11-01T00:00:46.192Z,40.60
2022-11-01T00:01:09.050Z,40.50
2022-11-01T00:01:32.016Z,40.30
2022-11-01T00:01:54.810Z,40.30
2022-11-01T00:02:17.836Z,40.30
2022-11-01T00:02:41.982Z,40.40
2022-11-01T00:03:05.084Z,40.30
2022-11-01T00:03:27.836Z,40.10
2022-11-01T00:03:50.563Z,40.10
2022-11-01T00:04:13.279Z,40.20
2022-11-01T00:04:36.000Z,40.40
2022-11-01T00:04:58.776Z,40.50
2022-11-01T00:05:21.479Z,40.50
2022-11-01T00:05:45.914Z,40.50
2022-11-01T00:06:08.652Z,40.60
2022-11-01T00:06:31.355Z,40.60
2022-11-01T00:06:55.126Z,40.70
2022-11-01T00:07:17.843Z,40.60
2022-11-01T00:07:40.576Z,40.50
2022-11-01T00:08:03.691Z,40.50
2022-11-01T00:08:26.753Z,40.40
2022-11-01T00:08:49.463Z,40.40
2022-11-01T00:09:12.197Z,40.40
2022-11-01T00:09:35.108Z,40.30
2022-11-01T00:09:57.892Z,40.40
2022-11-01T00:10:20.603Z,40.50
2022-11-01T00:10:43.317Z,40.60
2022-11-01T00:11:15.932Z,40.60
2022-11-01T00:11:38.904Z,40.60
2022-11-01T00:12:01.607Z,40.60
2022-11-01T00:12:24.390Z,40.60
2022-11-01T00:12:47.210Z,40.60
2022-11-01T00:13:09.924Z,40.60
2022-11-01T00:13:32.629Z,40.60
2022-11-01T00:13:56.354Z,40.60
2022-11-01T00:14:19.904Z,40.60
2022-11-01T00:14:42.706Z,40.40
2022-11-01T00:15:06.634Z,40.60
2022-11-01T00:15:29.410Z,40.50
2022-11-01T00:15:52.154Z,40.60
2022-11-01T00:16:15.093Z,40.50
2022-11-01T00:16:37.992Z,40.40
2022-11-01T00:17:00.695Z,40.50
2022-11-01T00:17:23.435Z,40.60
2022-11-01T00:17:47.646Z,40.50
2022-11-01T00:18:10.378Z,40.50
2022-11-01T00:18:33.164Z,40.40
2022-11-01T00:18:55.831Z,40.50
2022-11-01T00:19:19.291Z,40.50
2022-11-01T00:19:42.004Z,40.50
2022-11-01T00:20:05.433Z,40.40
2022-11-01T00:20:30.877Z,40.30
2022-11-01T00:20:53.621Z,40.30
2022-11-01T00:21:16.704Z,40.30
2022-11-01T00:21:39.693Z,40.30
2022-11-01T00:22:02.755Z,40.30
2022-11-01T00:22:26.725Z,40.30
2022-11-01T00:22:49.769Z,40.30
2022-11-01T00:23:13.668Z,40.20
2022-11-01T00:23:37.416Z,40.20
2022-11-01T00:24:00.162Z,40.10
2022-11-01T00:24:22.840Z,40.00
2022-11-01T00:24:45.547Z,40.00
2022-11-01T00:25:09.800Z,40.00
2022-11-01T00:25:32.573Z,40.00
2022-11-01T00:25:55.352Z,39.80
2022-11-01T00:26:19.587Z,39.80
2022-11-01T00:26:42.487Z,39.80
2022-11-01T00:27:05.506Z,39.80
2022-11-01T00:27:28.278Z,39.90
2022-11-01T00:27:51.000Z,40.00
2022-11-01T00:28:13.753Z,40.00
2022-11-01T00:28:37.678Z,40.00
2022-11-01T00:29:00.318Z,40.20
2022-11-01T00:29:23.043Z,40.10
2022-11-01T00:29:45.785Z,40.10
2022-11-01T00:30:09.088Z,40.20
2022-11-01T00:30:31.857Z,40.20
2022-11-01T00:30:54.568Z,40.20
2022-11-01T00:31:18.494Z,40.30
2022-11-01T00:31:41.470Z,40.30
2022-11-01T00:32:04.597Z,40.40
2022-11-01T00:32:28.325Z,40.30
2022-11-01T00:32:52.394Z,40.40
2022-11-01T00:33:15.284Z,40.40
2022-11-01T00:33:39.381Z,40.50
2022-11-01T00:34:05.654Z,40.50
2022-11-01T00:34:28.320Z,40.40
2022-11-01T00:34:51.114Z,40.50
2022-11-01T00:35:13.902Z,40.60
2022-11-01T00:35:39.024Z,40.60
2022-11-01T00:36:01.856Z,40.50
2022-11-01T00:36:24.737Z,40.60
2022-11-01T00:36:47.532Z,40.50
2022-11-01T00:37:10.461Z,40.60
2022-11-01T00:37:33.280Z,40.60
2022-11-01T00:37:56.001Z,40.50
2022-11-01T00:38:18.880Z,40.40
2022-11-01T00:38:41.653Z,40.40
2022-11-01T00:39:04.575Z,40.60
2022-11-01T00:39:30.610Z,40.50
2022-11-01T00:39:54.264Z,40.50
2022-11-01T00:40:17.190Z,40.40
2022-11-01T00:40:39.879Z,40.50
2022-11-01T00:41:04.188Z,40.50
2022-11-01T00:41:26.939Z,40.40
2022-11-01T00:41:49.616Z,40.40
2022-11-01T00:42:12.564Z,40.30
2022-11-01T00:42:35.380Z,40.40
2022-11-01T00:42:58.083Z,40.40
2022-11-01T00:43:20.815Z,40.50
2022-11-01T00:43:43.524Z,40.60
2022-11-01T00:44:06.280Z,40.70
2022-11-01T00:44:28.943Z,40.60
2022-11-01T00:44:51.683Z,40.80
2022-11-01T00:45:14.474Z,40.90
2022-11-01T00:45:38.357Z,40.80
2022-11-01T00:46:01.178Z,40.70
2022-11-01T00:46:23.903Z,40.80
2022-11-01T00:46:46.632Z,40.80
2022-11-01T00:47:10.586Z,40.90
2022-11-01T00:47:33.296Z,40.90
2022-11-01T00:47:57.536Z,40.80
2022-11-01T00:48:20.320Z,40.80
2022-11-01T00:48:43.000Z,40.90
2022-11-01T00:49:05.789Z,40.80
2022-11-01T00:49:28.522Z,40.80
2022-11-01T00:49:51.237Z,40.80
2022-11-01T00:50:14.046Z,40.80
2022-11-01T00:50:37.764Z,40.60
2022-11-01T00:51:00.414Z,40.80
2022-11-01T00:51:23.092Z,40.80
2022-11-01T00:51:45.784Z,40.80
2022-11-01T00:52:08.675Z,40.70
2022-11-01T00:52:31.342Z,40.70
2022-11-01T00:52:54.104Z,40.60
2022-11-01T00:53:18.247Z,40.60
2022-11-01T00:53:42.210Z,40.70
2022-11-01T00:54:05.130Z,40.80
2022-11-01T00:54:27.850Z,40.70
2022-11-01T00:54:50.655Z,40.80
2022-11-01T00:55:13.369Z,40.70
2022-11-01T00:55:36.159Z,40.70
2022-11-01T00:56:01.138Z,40.70
2022-11-01T00:56:23.836Z,40.60
2022-11-01T00:56:46.574Z,40.60
2022-11-01T00:57:09.393Z,40.60
2022-11-01T00:57:32.076Z,40.60
2022-11-01T00:57:54.958Z,40.80
2022-11-01T00:58:17.845Z,40.60
2022-11-01T00:58:40.821Z,40.60
2022-11-01T00:59:03.565Z,40.60
2022-11-01T00:59:26.280Z,40.60
2022-11-01T00:59:49.004Z,40.60
2022-11-01T01:00:13.454Z,40.60
2022-11-01T01:00:36.350Z,40.50
2022-11-01T01:00:59.491Z,40.50
2022-11-01T01:01:22.687Z,40.50
2022-11-01T01:01:45.585Z,40.50
2022-11-01T01:02:08.834Z,40.50
2022-11-01T01:02:31.966Z,40.40
2022-11-01T01:02:56.248Z,40.40
2022-11-01T01:03:18.878Z,40.30
2022-11-01T01:03:41.771Z,40.30
2022-11-01T01:04:04.770Z,40.40
2022-11-01T01:04:27.645Z,40.30
2022-11-01T01:04:50.658Z,40.40
2022-11-01T01:05:13.394Z,40.50
2022-11-01T01:05:36.150Z,40.40
2022-11-01T01:05:58.927Z,40.30
2022-11-01T01:06:21.653Z,40.30
2022-11-01T01:06:44.319Z,40.30
2022-11-01T01:07:06.990Z,40.30
2022-11-01T01:07:29.734Z,40.20
2022-11-01T01:07:52.434Z,40.20
2022-11-01T01:08:15.521Z,40.10
2022-11-01T01:08:38.290Z,40.20
2022-11-01T01:09:01.050Z,40.30
2022-11-01T01:09:23.955Z,40.20
2022-11-01T01:09:46.665Z,40.10
2022-11-01T01:10:09.649Z,40.10
2022-11-01T01:10:32.444Z,40.00
2022-11-01T01:10:55.255Z,40.10
2022-11-01T01:11:17.994Z,40.00
2022-11-01T01:11:40.697Z,40.00
2022-11-01T01:12:03.478Z,40.00
2022-11-01T01:12:26.151Z,40.10
2022-11-01T01:12:50.026Z,40.20
2022-11-01T01:13:12.736Z,40.20
2022-11-01T01:13:35.534Z,40.20
2022-11-01T01:13:58.275Z,40.10
2022-11-01T01:14:20.989Z,40.20
2022-11-01T01:14:44.726Z,40.10
2022-11-01T01:15:09.280Z,40.10
2022-11-01T01:15:31.994Z,40.20
2022-11-01T01:15:54.728Z,40.20
2022-11-01T01:16:17.504Z,40.80
2022-11-01T01:17:08.130Z,40.10
2022-11-01T01:17:33.720Z,40.20
2022-11-01T01:17:58.221Z,40.20
2022-11-01T01:18:20.904Z,40.20
2022-11-01T01:18:43.635Z,40.30
2022-11-01T01:19:06.355Z,40.30
2022-11-01T01:19:29.841Z,40.40
2022-11-01T01:19:52.490Z,40.30
2022-11-01T01:20:15.435Z,40.30
2022-11-01T01:20:38.197Z,40.20
2022-11-01T01:21:01.776Z,40.20
2022-11-01T01:21:24.497Z,40.30
2022-11-01T01:21:47.316Z,40.40
2022-11-01T01:22:10.082Z,40.30
2022-11-01T01:22:32.696Z,40.40
2022-11-01T01:22:55.889Z,40.40
2022-11-01T01:23:18.630Z,40.30
2022-11-01T01:23:41.290Z,40.30
2022-11-01T01:24:04.069Z,40.40
2022-11-01T01:24:26.815Z,40.50
2022-11-01T01:24:49.992Z,40.40
2022-11-01T01:25:12.650Z,41.00
2022-11-01T01:25:35.375Z,40.40
2022-11-01T01:25:58.191Z,40.40
2022-11-01T01:26:20.915Z,40.40
2022-11-01T01:26:43.720Z,40.50
2022-11-01T01:27:06.469Z,40.50
2022-11-01T01:27:29.129Z,40.50
2022-11-01T01:27:51.813Z,40.50
2022-11-01T01:28:14.595Z,40.50
2022-11-01T01:28:41.789Z,40.40
2022-11-01T01:29:07.357Z,40.60
2022-11-01T01:29:30.275Z,40.60
2022-11-01T01:29:52.954Z,41.20
2022-11-01T01:30:15.657Z,40.60
2022-11-01T01:30:41.481Z,40.60
2022-11-01T01:31:07.432Z,40.70
2022-11-01T01:31:30.134Z,40.70
2022-11-01T01:31:52.858Z,40.70
2022-11-01T01:32:16.728Z,40.60
2022-11-01T01:32:39.459Z,40.70
2022-11-01T01:33:03.780Z,40.80
2022-11-01T01:33:26.904Z,40.70
2022-11-01T01:33:49.602Z,40.70
2022-11-01T01:34:12.322Z,40.50
2022-11-01T01:34:35.074Z,40.40
2022-11-01T01:34:58.099Z,40.60
2022-11-01T01:35:20.800Z,40.70
2022-11-01T01:35:43.501Z,40.70
2022-11-01T01:36:07.147Z,40.70
2022-11-01T01:36:29.863Z,41.20
2022-11-01T01:36:52.519Z,40.60
2022-11-01T01:37:15.610Z,40.70
2022-11-01T01:37:39.400Z,40.60
2022-11-01T01:38:02.264Z,40.60
2022-11-01T01:38:25.333Z,40.60
2022-11-01T01:38:48.018Z,40.60
2022-11-01T01:39:10.862Z,40.50
2022-11-01T01:39:33.626Z,40.10
2022-11-01T01:39:56.504Z,40.20
2022-11-01T01:40:19.352Z,40.50
2022-11-01T01:40:42.252Z,40.50
2022-11-01T01:41:23.936Z,40.60
2022-11-01T01:41:58.914Z,40.50
2022-11-01T01:42:29.128Z,40.50
2022-11-01T01:42:51.839Z,40.60
2022-11-01T01:43:14.740Z,40.60
2022-11-01T01:43:41.316Z,40.60
2022-11-01T01:44:57.250Z,40.40
2022-11-01T01:45:31.310Z,40.60
2022-11-01T01:45:54.020Z,40.60
2022-11-01T01:46:16.855Z,40.60
2022-11-01T01:46:39.584Z,40.60
2022-11-01T01:47:02.424Z,40.60
2022-11-01T01:47:27.375Z,40.50
2022-11-01T01:47:52.169Z,40.30
2022-11-01T01:48:22.039Z,40.30
2022-11-01T01:48:47.055Z,40.20
2022-11-01T01:49:09.934Z,40.00
2022-11-01T01:49:32.666Z,40.00
2022-11-01T01:49:57.509Z,40.10
2022-11-01T01:50:25.934Z,40.10
2022-11-01T01:50:51.302Z,40.10
2022-11-01T01:51:16.469Z,40.10
2022-11-01T01:51:39.520Z,40.00
2022-11-01T01:52:02.199Z,40.20
2022-11-01T01:52:24.834Z,40.20
2022-11-01T01:52:51.846Z,40.40
2022-11-01T01:53:17.485Z,40.30
2022-11-01T01:53:42.142Z,40.20
2022-11-01T01:54:04.952Z,40.40
2022-11-01T01:54:27.597Z,40.50
2022-11-01T01:54:51.135Z,40.50
2022-11-01T01:55:15.813Z,40.50
2022-11-01T01:55:43.239Z,40.70
2022-11-01T01:56:07.651Z,40.70
2022-11-01T01:56:32.117Z,40.60
2022-11-01T01:56:54.902Z,40.60
2022-11-01T01:57:17.749Z,40.30
2022-11-01T01:57:40.474Z,40.10
2022-11-01T01:58:03.317Z,40.10
2022-11-01T01:58:28.474Z,40.20
2022-11-01T01:58:52.517Z,40.20
2022-11-01T01:59:15.228Z,40.40
2022-11-01T01:59:37.893Z,40.30
2022-11-01T02:00:00.577Z,40.40
2022-11-01T02:00:23.232Z,40.50
2022-11-01T02:00:46.201Z,40.50
2022-11-01T02:01:09.058Z,40.50
2022-11-01T02:01:32.486Z,40.40
2022-11-01T02:01:55.549Z,40.20
2022-11-01T02:02:18.494Z,40.30
2022-11-01T02:02:41.607Z,40.40
2022-11-01T02:03:05.089Z,40.30
2022-11-01T02:03:31.517Z,40.30
2022-11-01T02:03:54.300Z,40.40
2022-11-01T02:04:20.131Z,40.30
2022-11-01T02:04:45.146Z,40.40
2022-11-01T02:05:11.061Z,40.50
2022-11-01T02:05:39.834Z,40.50
2022-11-01T02:06:07.152Z,40.30
2022-11-01T02:06:30.019Z,40.10
2022-11-01T02:06:52.800Z,40.10
2022-11-01T02:07:15.593Z,39.90
2022-11-01T02:07:38.322Z,39.90
2022-11-01T02:08:02.113Z,40.20
2022-11-01T02:08:28.152Z,40.30
2022-11-01T02:08:52.801Z,40.20
2022-11-01T02:09:15.482Z,40.40
2022-11-01T02:09:40.750Z,40.50
2022-11-01T02:10:05.086Z,40.50
2022-11-01T02:10:28.811Z,40.50
2022-11-01T02:10:51.506Z,40.50
2022-11-01T02:11:14.551Z,40.50
2022-11-01T02:11:37.416Z,40.50
2022-11-01T02:12:00.153Z,40.50
2022-11-01T02:12:22.968Z,40.40
2022-11-01T02:12:47.997Z,40.50
2022-11-01T02:13:14.211Z,40.50
2022-11-01T02:13:36.916Z,40.50
2022-11-01T02:13:59.686Z,40.50
2022-11-01T02:14:22.372Z,40.30
2022-11-01T02:14:45.087Z,40.30
2022-11-01T02:15:13.676Z,40.30
2022-11-01T02:15:39.827Z,40.30
2022-11-01T02:16:31.231Z,40.20
2022-11-01T02:16:57.052Z,40.40
2022-11-01T02:17:22.682Z,40.30
2022-11-01T02:18:01.265Z,40.40
2022-11-01T02:18:28.304Z,40.50
2022-11-01T02:18:57.592Z,40.40
2022-11-01T02:19:46.892Z,40.20
2022-11-01T02:20:38.092Z,40.50
2022-11-01T02:21:23.192Z,40.50
2022-11-01T02:21:50.776Z,40.30
2022-11-01T02:22:15.101Z,40.40
2022-11-01T02:23:15.611Z,40.50
2022-11-01T02:23:57.465Z,40.50
2022-11-01T02:24:46.233Z,40.50
2022-11-01T02:25:35.052Z,40.40
2022-11-01T02:26:03.831Z,40.50
2022-11-01T02:27:06.544Z,40.50
2022-11-01T02:27:31.257Z,40.40
2022-11-01T02:28:08.353Z,40.30
2022-11-01T02:28:41.686Z,40.40
2022-11-01T02:29:12.076Z,40.30
2022-11-01T02:30:04.210Z,40.40
2022-11-01T02:30:27.030Z,40.30
2022-11-01T02:30:55.994Z,40.40
2022-11-01T02:31:31.678Z,40.40
2022-11-01T02:32:01.524Z,40.40
2022-11-01T02:32:26.253Z,40.30
2022-11-01T02:32:55.212Z,40.30
2022-11-01T02:33:22.181Z,40.40
2022-11-01T02:33:45.711Z,40.30
2022-11-01T02:34:10.835Z,40.40
2022-11-01T02:34:35.367Z,40.40
2022-11-01T02:34:59.043Z,40.40
2022-11-01T02:35:24.867Z,40.40
2022-11-01T02:35:56.022Z,40.40
2022-11-01T02:36:21.571Z,40.40
2022-11-01T02:36:46.091Z,40.30
2022-11-01T02:37:11.669Z,40.30
2022-11-01T02:37:37.596Z,40.60
2022-11-01T02:38:01.578Z,40.60
2022-11-01T02:38:27.081Z,40.50
2022-11-01T02:38:51.517Z,40.60
2022-11-01T02:39:17.609Z,40.60
2022-11-01T02:39:41.433Z,40.70
2022-11-01T02:40:07.668Z,40.80
2022-11-01T02:40:35.616Z,41.00
2022-11-01T02:41:04.007Z,40.90
2022-11-01T02:41:29.432Z,40.80
2022-11-01T02:41:54.969Z,40.80
2022-11-01T02:42:19.847Z,40.90
2022-11-01T02:42:43.601Z,40.90
2022-11-01T02:43:09.192Z,41.00
2022-11-01T02:43:34.572Z,40.70
2022-11-01T02:43:59.738Z,40.80
2022-11-01T02:44:23.884Z,40.90
2022-11-01T02:44:50.335Z,40.70
2022-11-01T02:45:27.756Z,40.70
2022-11-01T02:45:51.514Z,40.80
2022-11-01T02:46:32.710Z,40.60
2022-11-01T02:47:01.860Z,40.50
2022-11-01T02:47:26.147Z,40.10
2022-11-01T02:47:48.964Z,40.20
2022-11-01T02:48:13.394Z,39.90
2022-11-01T02:48:36.160Z,39.90
2022-11-01T02:48:59.335Z,39.80
2022-11-01T02:49:22.129Z,39.80
2022-11-01T02:49:45.610Z,40.00
2022-11-01T02:50:09.747Z,40.10
2022-11-01T02:50:33.999Z,39.90
2022-11-01T02:50:57.283Z,40.10
2022-11-01T02:51:21.966Z,40.10
2022-11-01T02:51:44.659Z,40.30
2022-11-01T02:52:08.978Z,40.30
2022-11-01T02:52:33.579Z,40.40
2022-11-01T02:52:56.305Z,40.20
2022-11-01T02:53:19.120Z,40.10
2022-11-01T02:53:41.851Z,40.10
2022-11-01T02:54:06.779Z,40.30
2022-11-01T02:54:32.396Z,40.30
2022-11-01T02:54:57.710Z,40.30
2022-11-01T02:55:31.075Z,40.40
2022-11-01T02:55:54.130Z,40.10
2022-11-01T02:56:16.824Z,40.10
2022-11-01T02:56:39.546Z,40.10
2022-11-01T02:57:05.600Z,40.50
2022-11-01T02:57:31.519Z,40.60
2022-11-01T02:57:54.244Z,40.50
2022-11-01T02:58:20.140Z,40.60
2022-11-01T02:58:42.811Z,40.30
2022-11-01T02:59:05.799Z,40.00
2022-11-01T02:59:28.797Z,40.00
2022-11-01T02:59:51.527Z,40.00
2022-11-01T03:00:19.684Z,40.00
2022-11-01T03:00:43.808Z,40.40
2022-11-01T03:01:15.517Z,40.50
2022-11-01T03:01:38.569Z,40.60
2022-11-01T03:02:04.759Z,40.70
2022-11-01T03:02:39.832Z,40.60
2022-11-01T03:03:10.469Z,40.50
2022-11-01T03:03:33.857Z,40.50
2022-11-01T03:03:56.944Z,40.40
2022-11-01T03:04:19.789Z,40.60
2022-11-01T03:04:42.734Z,40.60
2022-11-01T03:05:07.037Z,40.60
2022-11-01T03:05:35.153Z,40.50
2022-11-01T03:06:04.864Z,40.20
2022-11-01T03:06:30.401Z,40.00
2022-11-01T03:06:55.364Z,40.10
2022-11-01T03:07:18.213Z,40.10
2022-11-01T03:07:41.764Z,40.00
2022-11-01T03:08:06.727Z,40.30
2022-11-01T03:08:32.363Z,40.30
2022-11-01T03:08:57.779Z,40.50
2022-11-01T03:09:20.478Z,40.60
2022-11-01T03:09:43.257Z,40.50
2022-11-01T03:10:07.059Z,40.70
2022-11-01T03:10:35.603Z,40.70
2022-11-01T03:11:05.458Z,40.60
2022-11-01T03:11:32.529Z,40.70
2022-11-01T03:11:57.966Z,40.80
2022-11-01T03:12:21.933Z,40.40
2022-11-01T03:12:51.270Z,40.30
2022-11-01T03:13:21.444Z,40.40
2022-11-01T03:13:54.103Z,41.20
2022-11-01T03:14:23.759Z,40.60
2022-11-01T03:14:50.239Z,40.80
2022-11-01T03:15:21.268Z,40.90
2022-11-01T03:15:49.299Z,40.80
2022-11-01T03:16:16.958Z,40.80
2022-11-01T03:16:43.534Z,40.90
2022-11-01T03:17:08.498Z,40.80
2022-11-01T03:17:34.118Z,40.70
2022-11-01T03:18:01.296Z,40.50
2022-11-01T03:18:27.860Z,40.50
2022-11-01T03:19:04.843Z,40.50
2022-11-01T03:19:35.487Z,40.30
2022-11-01T03:20:06.827Z,40.40
2022-11-01T03:20:47.719Z,40.40
2022-11-01T03:21:18.275Z,40.30
2022-11-01T03:21:42.496Z,40.20
2022-11-01T03:22:09.308Z,40.20
2022-11-01T03:22:35.198Z,40.20
2022-11-01T03:22:59.098Z,40.20
2022-11-01T03:23:24.155Z,40.10
2022-11-01T03:23:49.772Z,40.00
2022-11-01T03:24:19.270Z,39.80
2022-11-01T03:24:46.575Z,40.00
2022-11-01T03:25:32.004Z,40.00
2022-11-01T03:25:55.902Z,40.00
2022-11-01T03:26:22.150Z,39.80
2022-11-01T03:26:45.640Z,39.90
2022-11-01T03:27:10.926Z,39.90
2022-11-01T03:27:35.525Z,39.80
2022-11-01T03:27:59.059Z,39.90
2022-11-01T03:28:23.083Z,39.80
2022-11-01T03:28:47.088Z,39.90
2022-11-01T03:29:10.089Z,39.90
2022-11-01T03:29:32.809Z,39.80
2022-11-01T03:30:03.694Z,39.80
2022-11-01T03:30:26.437Z,39.80
2022-11-01T03:30:51.146Z,39.80
2022-11-01T03:31:18.758Z,39.70
2022-11-01T03:31:41.558Z,39.80
2022-11-01T03:32:04.395Z,39.70
2022-11-01T03:32:30.729Z,39.80
2022-11-01T03:32:56.345Z,39.70
2022-11-01T03:33:19.059Z,39.70
2022-11-01T03:33:45.007Z,39.80
2022-11-01T03:34:16.419Z,39.80
2022-11-01T03:34:39.176Z,39.70
2022-11-01T03:35:01.909Z,39.70
2022-11-01T03:35:25.872Z,39.70
2022-11-01T03:35:49.811Z,39.70
2022-11-01T03:36:14.901Z,39.80
2022-11-01T03:36:39.204Z,39.70
2022-11-01T03:37:04.655Z,39.70
2022-11-01T03:37:28.490Z,39.70
2022-11-01T03:37:54.249Z,39.70
2022-11-01T03:38:17.769Z,39.70
2022-11-01T03:38:44.241Z,39.60
2022-11-01T03:39:09.015Z,39.60
2022-11-01T03:39:33.453Z,39.60
2022-11-01T03:39:56.144Z,39.60
2022-11-01T03:40:18.823Z,39.60
2022-11-01T03:40:44.793Z,39.60
2022-11-01T03:41:12.961Z,39.60
2022-11-01T03:41:38.334Z,39.50
2022-11-01T03:42:03.545Z,39.40
2022-11-01T03:42:26.235Z,39.50
2022-11-01T03:42:50.311Z,39.60
2022-11-01T03:43:13.994Z,39.50
2022-11-01T03:43:36.815Z,39.60
2022-11-01T03:43:59.673Z,39.60
2022-11-01T03:44:22.349Z,39.60
2022-11-01T03:44:47.094Z,39.50
2022-11-01T03:45:11.624Z,39.40
2022-11-01T03:45:35.573Z,39.50
2022-11-01T03:45:58.370Z,39.60
2022-11-01T03:46:21.055Z,39.60
2022-11-01T03:46:43.834Z,39.50
2022-11-01T03:47:06.684Z,39.50
2022-11-01T03:47:29.934Z,39.50
2022-11-01T03:47:54.041Z,39.60
2022-11-01T03:48:16.764Z,39.70
2022-11-01T03:48:40.278Z,39.80
2022-11-01T03:49:02.936Z,39.80
2022-11-01T03:49:25.613Z,39.80
2022-11-01T03:49:48.328Z,39.80
2022-11-01T03:50:15.034Z,39.90
2022-11-01T03:50:40.177Z,39.80
2022-11-01T03:51:02.892Z,39.80
2022-11-01T03:51:25.614Z,39.80
2022-11-01T03:51:48.716Z,39.80
2022-11-01T03:52:11.399Z,39.80
2022-11-01T03:52:34.255Z,39.70
2022-11-01T03:52:57.045Z,39.80
2022-11-01T03:53:19.865Z,39.90
2022-11-01T03:53:43.588Z,39.90
2022-11-01T03:54:11.004Z,39.90
2022-11-01T03:54:34.079Z,39.90
2022-11-01T03:54:56.878Z,39.90
2022-11-01T03:55:19.958Z,39.90
2022-11-01T03:55:43.839Z,40.00
2022-11-01T03:56:07.053Z,40.00
2022-11-01T03:56:29.733Z,40.00
2022-11-01T03:56:52.554Z,40.00
2022-11-01T03:57:16.030Z,40.00
2022-11-01T03:57:38.729Z,40.10
2022-11-01T03:58:01.828Z,40.10
2022-11-01T03:58:41.481Z,40.10
2022-11-01T03:59:04.333Z,40.20
2022-11-01T03:59:27.043Z,40.10
2022-11-01T03:59:49.743Z,40.10
2022-11-01T04:00:15.547Z,40.10
2022-11-01T04:00:39.129Z,40.00
2022-11-01T04:01:01.889Z,40.00
2022-11-01T04:01:24.748Z,40.00
2022-11-01T04:01:47.936Z,40.00
2022-11-01T04:02:38.676Z,40.00
2022-11-01T04:03:03.181Z,40.00
2022-11-01T04:03:26.274Z,39.90
2022-11-01T04:03:51.587Z,39.80
2022-11-01T04:04:14.298Z,39.90
2022-11-01T04:04:39.853Z,40.00
2022-11-01T04:05:02.569Z,40.00
2022-11-01T04:05:26.741Z,40.00
2022-11-01T04:05:49.512Z,39.90
2022-11-01T04:06:12.182Z,40.00
2022-11-01T04:06:35.086Z,40.00
2022-11-01T04:06:57.862Z,40.10
2022-11-01T04:07:20.642Z,40.10
2022-11-01T04:07:43.580Z,40.10
2022-11-01T04:08:06.884Z,40.10
2022-11-01T04:08:29.649Z,40.10
2022-11-01T04:08:52.414Z,40.20
2022-11-01T04:09:15.090Z,40.10
2022-11-01T04:09:37.772Z,40.20
2022-11-01T04:10:00.470Z,40.20
2022-11-01T04:10:24.005Z,40.00
2022-11-01T04:10:46.665Z,40.70
2022-11-01T04:11:09.336Z,40.30
2022-11-01T04:11:32.197Z,40.30
2022-11-01T04:11:54.883Z,40.20
2022-11-01T04:12:17.625Z,40.20
2022-11-01T04:12:44.793Z,40.20
2022-11-01T04:13:07.503Z,40.20
2022-11-01T04:13:30.183Z,40.30
2022-11-01T04:13:52.853Z,40.40
2022-11-01T04:14:34.087Z,40.30
2022-11-01T04:15:15.576Z,40.20
2022-11-01T04:15:56.891Z,40.40
2022-11-01T04:16:38.531Z,40.40
2022-11-01T04:17:20.151Z,40.50
2022-11-01T04:18:01.121Z,40.50
2022-11-01T04:18:44.271Z,40.40
2022-11-01T04:19:26.271Z,40.20
2022-11-01T04:20:07.775Z,40.30
2022-11-01T04:20:33.541Z,40.40
2022-11-01T04:20:56.261Z,40.30
2022-11-01T04:21:20.803Z,40.30
2022-11-01T04:21:43.509Z,40.20
2022-11-01T04:22:06.241Z,40.40
2022-11-01T04:22:29.014Z,40.50
2022-11-01T04:22:51.731Z,40.50
2022-11-01T04:23:14.354Z,40.40
2022-11-01T04:23:37.195Z,40.40
2022-11-01T04:23:59.970Z,40.50
2022-11-01T04:24:22.619Z,40.40
2022-11-01T04:24:45.453Z,40.40
2022-11-01T04:25:08.557Z,40.20
2022-11-01T04:25:31.436Z,40.20
2022-11-01T04:25:54.115Z,40.30
2022-11-01T04:26:19.326Z,40.40
2022-11-01T04:26:41.997Z,40.40
2022-11-01T04:27:04.791Z,40.30
2022-11-01T04:27:27.532Z,40.40
2022-11-01T04:27:50.238Z,40.40
2022-11-01T04:28:12.951Z,40.20
2022-11-01T04:28:35.918Z,40.20
2022-11-01T04:28:58.888Z,40.10
2022-11-01T04:29:21.574Z,40.20
2022-11-01T04:29:47.200Z,40.20
2022-11-01T04:30:11.184Z,40.30
2022-11-01T04:30:33.898Z,40.20
2022-11-01T04:30:56.621Z,40.10
2022-11-01T04:31:19.313Z,40.20
2022-11-01T04:31:42.227Z,40.30
2022-11-01T04:32:05.209Z,40.30
2022-11-01T04:32:27.988Z,40.20
2022-11-01T04:32:50.739Z,40.20
2022-11-01T04:33:13.758Z,40.30
2022-11-01T04:33:38.462Z,40.20
2022-11-01T04:34:01.603Z,40.10
2022-11-01T04:34:42.784Z,39.90
2022-11-01T04:35:35.839Z,40.20
2022-11-01T04:35:58.543Z,40.10
2022-11-01T04:36:21.325Z,40.10
2022-11-01T04:36:44.298Z,40.00
2022-11-01T04:37:07.006Z,40.00
2022-11-01T04:37:31.676Z,39.80
2022-11-01T04:37:57.952Z,39.80
2022-11-01T04:38:20.682Z,40.00
2022-11-01T04:38:43.365Z,39.90
2022-11-01T04:39:06.084Z,40.00
2022-11-01T04:39:28.816Z,39.90
2022-11-01T04:39:51.558Z,39.90
2022-11-01T04:40:15.716Z,39.90
2022-11-01T04:40:38.341Z,40.00
2022-11-01T04:41:00.984Z,40.00
2022-11-01T04:41:23.836Z,40.00
2022-11-01T04:41:47.100Z,40.00
2022-11-01T04:42:11.145Z,40.00
2022-11-01T04:42:34.792Z,40.00
2022-11-01T04:42:58.202Z,40.10
2022-11-01T04:43:22.895Z,40.10
2022-11-01T04:43:45.821Z,40.10
2022-11-01T04:44:08.567Z,40.20
2022-11-01T04:44:31.258Z,40.20
2022-11-01T04:44:53.913Z,40.10
2022-11-01T04:45:16.705Z,40.20
2022-11-01T04:45:39.422Z,40.30
2022-11-01T04:46:02.135Z,40.30
2022-11-01T04:46:24.845Z,40.20
2022-11-01T04:46:47.766Z,40.10
2022-11-01T04:47:10.507Z,40.20
2022-11-01T04:47:33.280Z,40.10
2022-11-01T04:48:03.376Z,40.10
2022-11-01T04:48:27.701Z,40.10
2022-11-01T04:48:51.851Z,40.20
2022-11-01T04:49:14.566Z,40.10
2022-11-01T04:49:37.182Z,40.20
2022-11-01T04:49:59.947Z,40.10
2022-11-01T04:50:22.657Z,40.10
2022-11-01T04:50:46.117Z,40.00
2022-11-01T04:51:08.958Z,40.10
2022-11-01T04:51:31.706Z,40.10
2022-11-01T04:51:54.547Z,40.10
2022-11-01T04:52:17.411Z,40.10
2022-11-01T04:52:40.287Z,40.10
2022-11-01T04:53:03.258Z,40.10
2022-11-01T04:53:26.225Z,40.20
2022-11-01T04:53:49.190Z,40.20
2022-11-01T04:54:12.038Z,40.10
2022-11-01T04:54:34.708Z,40.10
2022-11-01T04:54:57.480Z,40.20
2022-11-01T04:55:20.214Z,40.20
2022-11-01T04:55:42.875Z,40.80
2022-11-01T04:56:07.259Z,40.20
2022-11-01T04:56:29.979Z,40.10
2022-11-01T04:56:52.650Z,40.10
2022-11-01T04:57:24.509Z,40.20
2022-11-01T04:57:47.366Z,40.30
2022-11-01T04:58:11.114Z,40.20
2022-11-01T04:58:34.628Z,40.20
2022-11-01T04:58:57.675Z,40.10
2022-11-01T04:59:20.402Z,40.00
2022-11-01T04:59:43.159Z,39.80
2022-11-01T05:00:08.321Z,39.90
2022-11-01T05:00:33.415Z,40.10
2022-11-01T05:00:56.776Z,40.20
2022-11-01T05:01:22.218Z,40.30
2022-11-01T05:01:45.562Z,40.30
2022-11-01T05:02:08.369Z,40.20
2022-11-01T05:02:31.193Z,40.20
2022-11-01T05:02:54.920Z,40.10
2022-11-01T05:03:17.673Z,40.10
2022-11-01T05:03:40.341Z,40.10
2022-11-01T05:04:05.042Z,40.00
2022-11-01T05:04:27.725Z,40.00
2022-11-01T05:04:50.468Z,40.80
2022-11-01T05:05:13.407Z,40.20
2022-11-01T05:05:36.821Z,39.90
2022-11-01T05:05:59.570Z,39.90
2022-11-01T05:06:22.242Z,40.00
2022-11-01T05:06:44.945Z,39.80
2022-11-01T05:07:07.810Z,39.60
2022-11-01T05:07:30.550Z,39.70
2022-11-01T05:08:27.725Z,39.90
2022-11-01T05:08:50.593Z,40.20
2022-11-01T05:09:13.270Z,40.10
2022-11-01T05:09:35.979Z,40.00
2022-11-01T05:09:58.638Z,40.30
2022-11-01T05:10:21.284Z,40.20
2022-11-01T05:10:44.480Z,40.30
2022-11-01T05:11:07.299Z,40.20
2022-11-01T05:11:30.125Z,40.20
2022-11-01T05:11:52.801Z,40.20
2022-11-01T05:12:15.550Z,40.20
2022-11-01T05:12:38.300Z,40.10
2022-11-01T05:13:01.386Z,40.10
2022-11-01T05:13:25.194Z,39.70
2022-11-01T05:13:47.913Z,39.20
2022-11-01T05:14:10.719Z,39.30
2022-11-01T05:14:33.419Z,39.70
2022-11-01T05:14:56.995Z,40.10
2022-11-01T05:15:20.107Z,40.20
2022-11-01T05:15:59.262Z,40.20
2022-11-01T05:16:25.511Z,40.10
2022-11-01T05:16:48.179Z,39.90
2022-11-01T05:17:13.749Z,40.00
2022-11-01T05:17:36.569Z,39.90
2022-11-01T05:17:59.509Z,40.00
2022-11-01T05:18:22.234Z,40.30
2022-11-01T05:18:45.083Z,40.20
2022-11-01T05:19:09.400Z,40.00
2022-11-01T05:19:32.169Z,39.70
2022-11-01T05:19:54.815Z,39.40
2022-11-01T05:20:17.593Z,39.40
2022-11-01T05:20:40.278Z,39.70